Map

Track Data

SID SEASON NUMBER BASIN SUBBASIN NAME ISO_TIME NATURE LAT LON WMO_WIND WMO_PRES WMO_AGENCY TRACK_TYPE DIST2LAND LANDFALL IFLAG USA_AGENCY USA_ATCF_ID USA_LAT USA_LON USA_RECORD USA_STATUS USA_WIND USA_PRES USA_SSHS USA_R34_NE USA_R34_SE USA_R34_SW USA_R34_NW USA_R50_NE USA_R50_SE USA_R50_SW USA_R50_NW USA_R64_NE USA_R64_SE USA_R64_SW USA_R64_NW USA_POCI USA_ROCI USA_RMW USA_EYE TOKYO_LAT TOKYO_LON TOKYO_GRADE TOKYO_WIND TOKYO_PRES TOKYO_R50_DIR TOKYO_R50_LONG TOKYO_R50_SHORT TOKYO_R30_DIR TOKYO_R30_LONG TOKYO_R30_SHORT TOKYO_LAND CMA_LAT CMA_LON CMA_CAT CMA_WIND CMA_PRES HKO_LAT HKO_LON HKO_CAT HKO_WIND HKO_PRES NEWDELHI_LAT NEWDELHI_LON NEWDELHI_GRADE NEWDELHI_WIND NEWDELHI_PRES NEWDELHI_CI NEWDELHI_DP NEWDELHI_POCI REUNION_LAT REUNION_LON REUNION_TYPE REUNION_WIND REUNION_PRES REUNION_TNUM REUNION_CI REUNION_RMW REUNION_R34_NE REUNION_R34_SE REUNION_R34_SW REUNION_R34_NW REUNION_R50_NE REUNION_R50_SE REUNION_R50_SW REUNION_R50_NW REUNION_R64_NE REUNION_R64_SE REUNION_R64_SW REUNION_R64_NW BOM_LAT BOM_LON BOM_TYPE BOM_WIND BOM_PRES BOM_TNUM BOM_CI BOM_RMW BOM_R34_NE BOM_R34_SE BOM_R34_SW BOM_R34_NW BOM_R50_NE BOM_R50_SE BOM_R50_SW BOM_R50_NW BOM_R64_NE BOM_R64_SE BOM_R64_SW BOM_R64_NW BOM_ROCI BOM_POCI BOM_EYE BOM_POS_METHOD BOM_PRES_METHOD NADI_LAT NADI_LON NADI_CAT NADI_WIND NADI_PRES WELLINGTON_LAT WELLINGTON_LON WELLINGTON_WIND WELLINGTON_PRES DS824_LAT DS824_LON DS824_STAGE DS824_WIND DS824_PRES TD9636_LAT TD9636_LON TD9636_STAGE TD9636_WIND TD9636_PRES TD9635_LAT TD9635_LON TD9635_WIND TD9635_PRES TD9635_ROCI NEUMANN_LAT NEUMANN_LON NEUMANN_CLASS NEUMANN_WIND NEUMANN_PRES MLC_LAT MLC_LON MLC_CLASS MLC_WIND MLC_PRES USA_GUST BOM_GUST BOM_GUST_PER REUNION_GUST REUNION_GUST_PER USA_SEAHGT USA_SEARAD_NE USA_SEARAD_SE USA_SEARAD_SW USA_SEARAD_NW STORM_SPEED STORM_DIR
1912246N38288 1912 42 NA NA NOT_NAMED 1912-09-02 00:00:00 TS 38.2000 -72.5000 30 hurdat_atl main 212 212 O_____________ hurdat_atl AL031912 38.2000 -72.5000 TD 30 -1 1 160
1912246N38288 1912 42 NA NA NOT_NAMED 1912-09-02 03:00:00 TS 38.1475 -72.5000 main 220 220 P_____________ AL031912 38.1475 -72.5000 TD 30 -1 1 0
1912246N38288 1912 42 NA NA NOT_NAMED 1912-09-02 06:00:00 TS 38.1000 -72.5000 30 hurdat_atl main 220 220 O_____________ hurdat_atl AL031912 38.1000 -72.5000 TD 30 -1 1 0
1912246N38288 1912 42 NA NA NOT_NAMED 1912-09-02 09:00:00 TS 38.0575 -72.5000 main 220 220 P_____________ AL031912 38.0575 -72.5000 TD 32 -1 1 0
1912246N38288 1912 42 NA NA NOT_NAMED 1912-09-02 12:00:00 TS 38.0000 -72.5000 35 hurdat_atl main 226 226 O_____________ hurdat_atl AL031912 38.0000 -72.5000 TS 35 0 2 0
1912246N38288 1912 42 NA NA NOT_NAMED 1912-09-02 15:00:00 TS 37.9075 -72.5000 main 231 231 P_____________ AL031912 37.9075 -72.5000 TS 37 0 2 172
1912246N38288 1912 42 NA NA NOT_NAMED 1912-09-02 18:00:00 TS 37.8000 -72.5000 40 hurdat_atl main 233 233 O_____________ hurdat_atl AL031912 37.8000 -72.5000 TS 40 0 2 172
1912246N38288 1912 42 NA NA NOT_NAMED 1912-09-02 21:00:00 TS 37.7075 -72.5000 main 236 236 P_____________ AL031912 37.7075 -72.5000 TS 42 0 2 172
1912246N38288 1912 42 NA NA NOT_NAMED 1912-09-03 00:00:00 TS 37.6000 -72.5000 45 hurdat_atl main 240 240 O_____________ hurdat_atl AL031912 37.6000 -72.5000 TS 45 0 3 178
1912246N38288 1912 42 NA NA NOT_NAMED 1912-09-03 03:00:00 TS 37.4575 -72.5000 main 244 244 P_____________ AL031912 37.4575 -72.5000 TS 45 0 3 0
1912246N38288 1912 42 NA NA NOT_NAMED 1912-09-03 06:00:00 TS 37.3000 -72.5000 45 hurdat_atl main 253 253 O_____________ hurdat_atl AL031912 37.3000 -72.5000 TS 45 0 3 176
1912246N38288 1912 42 NA NA NOT_NAMED 1912-09-03 09:00:00 TS 37.1650 -72.4773 main 258 258 P_____________ AL031912 37.1650 -72.4773 TS 45 0 3 0
1912246N38288 1912 42 NA NA NOT_NAMED 1912-09-03 12:00:00 TS 37.0000 -72.5000 45 hurdat_atl main 270 269 O_____________ hurdat_atl AL031912 37.0000 -72.5000 TS 45 0 4 195
1912246N38288 1912 42 NA NA NOT_NAMED 1912-09-03 15:00:00 TS 36.7650 -72.6201 main 276 254 P_____________ AL031912 36.7650 -72.6201 TS 45 0 6 206
1912246N38288 1912 42 NA NA NOT_NAMED 1912-09-03 18:00:00 TS 36.5000 -72.8000 45 hurdat_atl main 254 231 O_____________ hurdat_atl AL031912 36.5000 -72.8000 TS 45 0 6 211
1912246N38288 1912 42 NA NA NOT_NAMED 1912-09-03 21:00:00 TS 36.2500 -73.0000 main 231 207 P_____________ AL031912 36.2500 -73.0000 TS 42 0 6 213
1912246N38288 1912 42 NA NA NOT_NAMED 1912-09-04 00:00:00 TS 36.0000 -73.2000 40 hurdat_atl main 207 197 O_____________ hurdat_atl AL031912 36.0000 -73.2000 TS 40 0 6 209
1912246N38288 1912 42 NA NA NOT_NAMED 1912-09-04 03:00:00 TS 35.7499 -73.3422 main 198 181 P_____________ AL031912 35.7499 -73.3422 TS 40 0 6 206
1912246N38288 1912 42 NA NA NOT_NAMED 1912-09-04 06:00:00 TS 35.5000 -73.5000 40 hurdat_atl main 183 171 O_____________ hurdat_atl AL031912 35.5000 -73.5000 TS 40 0 6 212
1912246N38288 1912 42 NA NA NOT_NAMED 1912-09-04 09:00:00 TS 35.2499 -73.7198 main 175 162 P_____________ AL031912 35.2499 -73.7198 TS 40 0 6 219
1912246N38288 1912 42 NA NA NOT_NAMED 1912-09-04 12:00:00 TS 35.0000 -74.0000 40 hurdat_atl main 162 154 O_____________ hurdat_atl AL031912 35.0000 -74.0000 TS 40 0 7 225
1912246N38288 1912 42 NA NA NOT_NAMED 1912-09-04 15:00:00 TS 34.7500 -74.3349 main 155 148 P_____________ AL031912 34.7500 -74.3349 TS 40 0 8 229
1912246N38288 1912 42 NA NA NOT_NAMED 1912-09-04 18:00:00 TS 34.5000 -74.7000 40 hurdat_atl main 152 136 O_____________ hurdat_atl AL031912 34.5000 -74.7000 TS 40 0 8 229
1912246N38288 1912 42 NA NA NOT_NAMED 1912-09-04 21:00:00 TS 34.2498 -75.0422 main 142 127 P_____________ AL031912 34.2498 -75.0422 TS 37 0 8 229
1912246N38288 1912 42 NA NA NOT_NAMED 1912-09-05 00:00:00 TS 34.0000 -75.4000 35 hurdat_atl main 127 119 O_____________ hurdat_atl AL031912 34.0000 -75.4000 TS 35 0 8 231
1912246N38288 1912 42 NA NA NOT_NAMED 1912-09-05 03:00:00 TS 33.7499 -75.7923 main 128 120 P_____________ AL031912 33.7499 -75.7923 TS 35 0 8 233
1912246N38288 1912 42 NA NA NOT_NAMED 1912-09-05 06:00:00 TS 33.5000 -76.2000 35 hurdat_atl main 136 135 O_____________ hurdat_atl AL031912 33.5000 -76.2000 TS 35 0 8 232
1912246N38288 1912 42 NA NA NOT_NAMED 1912-09-05 09:00:00 TS 33.2422 -76.5848 main 151 135 P_____________ AL031912 33.2422 -76.5848 TS 35 0 8 233
1912246N38288 1912 42 NA NA NOT_NAMED 1912-09-05 12:00:00 TS 33.0000 -77.0000 35 hurdat_atl main 136 128 O_____________ hurdat_atl AL031912 33.0000 -77.0000 TS 35 0 9 239
1912246N38288 1912 42 NA NA NOT_NAMED 1912-09-05 15:00:00 TS 32.7923 -77.4697 main 131 128 P_____________ AL031912 32.7923 -77.4697 TS 32 -1 9 245
1912246N38288 1912 42 NA NA NOT_NAMED 1912-09-05 18:00:00 TS 32.6000 -78.0000 30 hurdat_atl main 130 107 O_____________ hurdat_atl AL031912 32.6000 -78.0000 TD 30 -1 10 247
1912246N38288 1912 42 NA NA NOT_NAMED 1912-09-05 21:00:00 TS 32.3996 -78.5622 main 100 86 P_____________ AL031912 32.3996 -78.5622 TD 30 -1 11 248
1912246N38288 1912 42 NA NA NOT_NAMED 1912-09-06 00:00:00 TS 32.2000 -79.2000 30 hurdat_atl main 86 62 O_____________ hurdat_atl AL031912 32.2000 -79.2000 TD 30 -1 12 250
1912246N38288 1912 42 NA NA NOT_NAMED 1912-09-06 03:00:00 TS 31.9920 -79.9049 main 67 21 P_____________ AL031912 31.9920 -79.9049 TD 30 -1 13 253
1912246N38288 1912 42 NA NA NOT_NAMED 1912-09-06 06:00:00 TS 31.8000 -80.7000 30 hurdat_atl main 21 0 O_____________ hurdat_atl AL031912 31.8000 -80.7000 TD 30 -1 15 256
1912246N38288 1912 42 NA NA NOT_NAMED 1912-09-06 09:00:00 TS 31.6345 -81.5623 main 0 0 P_____________ AL031912 31.6345 -81.5623 TD 27 -1 16 259
1912246N38288 1912 42 NA NA NOT_NAMED 1912-09-06 12:00:00 TS 31.5000 -82.5000 25 hurdat_atl main 0 0 O_____________ hurdat_atl AL031912 31.5000 -82.5000 TD 25 -1 17 262
1912246N38288 1912 42 NA NA NOT_NAMED 1912-09-06 15:00:00 TS 31.3941 -83.4878 main 0 0 P_____________ AL031912 31.3941 -83.4878 TD 22 -1 17 263
1912246N38288 1912 42 NA NA NOT_NAMED 1912-09-06 18:00:00 TS 31.3000 -84.5000 20 hurdat_atl main 0 O_____________ hurdat_atl AL031912 31.3000 -84.5000 TD 20 -1 17 264

About IBTrACS Database

This database is a web-friendly format of International Best Track Archive for Climate Stewardship (IBTrACS), a global best track data archive curated by NOAA dating back to 1842.

Updated: 2021-10-21